createdAt,value
2023-03-05T00:01:26.975Z,3.92
2023-03-05T00:03:57.408Z,3.95
2023-03-05T00:06:26.749Z,3.78
2023-03-05T00:08:53.860Z,5.25
2023-03-05T00:11:21.418Z,4.18
2023-03-05T00:13:51.114Z,3.95
2023-03-05T00:16:18.436Z,3.17
2023-03-05T00:18:47.067Z,3.85
2023-03-05T00:21:19.989Z,2.70
2023-03-05T00:23:47.236Z,3.60
2023-03-05T00:26:14.315Z,3.65
2023-03-05T00:28:41.403Z,3.17
2023-03-05T00:31:08.581Z,3.65
2023-03-05T00:33:35.944Z,4.82
2023-03-05T00:36:07.899Z,3.30
2023-03-05T00:38:35.227Z,3.20
2023-03-05T00:41:02.730Z,3.33
2023-03-05T00:43:30.136Z,2.97
2023-03-05T00:45:57.284Z,4.60
2023-03-05T00:48:24.386Z,3.60
2023-03-05T00:50:51.863Z,4.18
2023-03-05T00:53:20.450Z,3.45
2023-03-05T00:55:47.610Z,3.53
2023-03-05T00:58:15.366Z,4.60
2023-03-05T01:00:42.719Z,4.07
2023-03-05T01:03:09.902Z,3.67
2023-03-05T01:05:37.182Z,3.17
2023-03-05T01:08:04.781Z,3.80
2023-03-05T01:10:33.251Z,3.22
2023-03-05T01:13:00.350Z,3.30
2023-03-05T01:15:27.821Z,4.63
2023-03-05T01:17:54.924Z,4.80
2023-03-05T01:20:22.440Z,4.13
2023-03-05T01:22:49.705Z,3.58
2023-03-05T01:25:17.808Z,3.95
2023-03-05T01:27:46.569Z,2.83
2023-03-05T01:30:15.119Z,4.05
2023-03-05T01:32:42.793Z,3.33
2023-03-05T01:35:16.851Z,3.83
2023-03-05T01:37:44.285Z,3.33
2023-03-05T01:40:14.628Z,4.32
2023-03-05T01:42:46.471Z,4.15
2023-03-05T01:45:16.407Z,3.70
2023-03-05T01:47:44.440Z,3.75
2023-03-05T01:50:18.528Z,4.43
2023-03-05T01:52:52.593Z,4.68
2023-03-05T01:55:22.216Z,3.30
2023-03-05T01:57:55.600Z,4.05
2023-03-05T02:03:18.466Z,3.90
2023-03-05T02:05:45.536Z,3.63
2023-03-05T02:08:15.716Z,3.90
2023-03-05T02:10:45.921Z,3.63
2023-03-05T02:13:16.874Z,5.43
2023-03-05T02:15:44.512Z,3.47
2023-03-05T02:18:11.692Z,6.07
2023-03-05T02:20:47.085Z,4.28
2023-03-05T02:23:16.168Z,3.97
2023-03-05T02:25:43.458Z,3.88
2023-03-05T02:28:17.907Z,4.03
2023-03-05T02:30:45.080Z,4.03
2023-03-05T02:33:13.644Z,4.28
2023-03-05T02:35:41.390Z,4.38
2023-03-05T02:38:08.482Z,3.70
2023-03-05T02:40:37.020Z,3.47
2023-03-05T02:43:04.538Z,3.88
2023-03-05T02:45:31.731Z,3.97
2023-03-05T02:47:58.976Z,4.28
2023-03-05T02:50:27.397Z,3.90
2023-03-05T02:52:54.602Z,5.03
2023-03-05T02:55:21.749Z,5.47
2023-03-05T02:57:50.236Z,3.30
2023-03-05T03:00:17.907Z,4.35
2023-03-05T03:02:45.034Z,3.92
2023-03-05T03:05:12.266Z,3.22
2023-03-05T03:07:39.383Z,3.95
2023-03-05T03:10:07.688Z,3.67
2023-03-05T03:12:37.189Z,4.25
2023-03-05T03:15:06.954Z,4.53
2023-03-05T03:17:35.780Z,3.85
2023-03-05T03:20:05.595Z,4.65
2023-03-05T03:22:33.090Z,3.80
2023-03-05T03:25:00.588Z,3.17
2023-03-05T03:27:27.686Z,3.83
2023-03-05T03:29:54.795Z,3.42
2023-03-05T03:32:23.260Z,4.53
2023-03-05T03:34:50.398Z,3.88
2023-03-05T03:37:17.544Z,5.80
2023-03-05T03:39:44.659Z,3.95
2023-03-05T03:42:11.964Z,3.97
2023-03-05T03:44:39.057Z,3.83
2023-03-05T03:47:06.436Z,4.25
2023-03-05T03:49:34.870Z,4.15
2023-03-05T03:52:01.972Z,4.10
2023-03-05T03:54:29.286Z,4.40
2023-03-05T03:56:56.499Z,5.15
2023-03-05T03:59:23.784Z,4.00
2023-03-05T04:01:50.954Z,3.60
2023-03-05T04:04:18.314Z,3.55
2023-03-05T04:06:47.225Z,4.22
2023-03-05T04:09:14.323Z,3.72
2023-03-05T04:11:41.444Z,3.28
2023-03-05T04:14:08.577Z,4.75
2023-03-05T04:16:35.735Z,4.35
2023-03-05T04:19:02.915Z,5.03
2023-03-05T04:21:30.017Z,3.60
2023-03-05T04:23:58.493Z,5.22
2023-03-05T04:26:25.641Z,4.03
2023-03-05T04:28:52.737Z,4.15
2023-03-05T04:31:19.986Z,4.70
2023-03-05T04:33:47.158Z,4.90
2023-03-05T04:36:14.234Z,4.88
2023-03-05T04:38:41.355Z,3.95
2023-03-05T04:41:09.854Z,3.78
2023-03-05T04:43:37.102Z,4.78
2023-03-05T04:46:04.713Z,4.30
2023-03-05T04:48:31.899Z,5.20
2023-03-05T04:50:59.010Z,4.28
2023-03-05T04:53:26.142Z,4.53
2023-03-05T04:55:53.678Z,3.70
2023-03-05T04:58:22.885Z,3.85
2023-03-05T05:00:49.970Z,4.03
2023-03-05T05:03:17.147Z,4.90
2023-03-05T05:05:44.301Z,4.07
2023-03-05T05:08:11.390Z,4.75
2023-03-05T05:10:38.600Z,3.50
2023-03-05T05:13:05.864Z,3.70
2023-03-05T05:15:34.281Z,6.90
2023-03-05T05:18:01.454Z,4.15
2023-03-05T05:20:28.822Z,5.68
2023-03-05T05:22:55.910Z,3.92
2023-03-05T05:25:23.086Z,3.95
2023-03-05T05:27:50.179Z,3.83
2023-03-05T05:30:17.331Z,4.55
2023-03-05T05:32:45.799Z,4.50
2023-03-05T05:35:12.874Z,4.20
2023-03-05T05:37:39.974Z,3.83
2023-03-05T05:40:08.591Z,3.88
2023-03-05T05:42:35.966Z,5.45
2023-03-05T05:45:03.392Z,5.22
2023-03-05T05:47:30.642Z,4.45
2023-03-05T05:49:59.127Z,3.90
2023-03-05T05:52:26.211Z,4.80
2023-03-05T05:54:53.320Z,4.32
2023-03-05T05:57:20.592Z,4.85
2023-03-05T05:59:47.704Z,4.30
2023-03-05T06:02:14.849Z,5.50
2023-03-05T06:04:42.011Z,4.40
2023-03-05T06:07:10.445Z,4.68
2023-03-05T06:09:37.731Z,4.38
2023-03-05T06:12:05.981Z,3.55
2023-03-05T06:14:33.092Z,3.47
2023-03-05T06:17:00.388Z,3.95
2023-03-05T06:19:27.470Z,3.58
2023-03-05T06:21:54.566Z,3.00
2023-03-05T06:24:23.120Z,4.70
2023-03-05T06:26:50.242Z,4.70
2023-03-05T06:29:18.328Z,4.43
2023-03-05T06:31:45.433Z,5.85
2023-03-05T06:34:12.899Z,3.05
2023-03-05T06:36:40.015Z,3.88
2023-03-05T06:39:07.395Z,3.63
2023-03-05T06:41:35.839Z,4.70
2023-03-05T06:44:03.065Z,3.63
2023-03-05T06:46:32.343Z,5.03
2023-03-05T06:49:01.908Z,3.88
2023-03-05T06:51:30.686Z,3.28
2023-03-05T06:54:00.712Z,3.35
2023-03-05T06:56:27.854Z,3.05
2023-03-05T06:58:56.378Z,3.83
2023-03-05T07:01:23.582Z,3.92
2023-03-05T07:03:52.040Z,3.63
2023-03-05T07:06:20.144Z,4.88
2023-03-05T07:08:47.973Z,4.25
2023-03-05T07:11:17.990Z,3.42
2023-03-05T07:13:45.569Z,3.95
2023-03-05T07:16:16.575Z,3.72
2023-03-05T07:18:44.067Z,3.78
2023-03-05T07:21:15.535Z,5.28
2023-03-05T07:23:42.790Z,4.53
2023-03-05T07:26:10.657Z,4.72
2023-03-05T07:28:37.989Z,4.07
2023-03-05T07:31:07.345Z,4.00
2023-03-05T07:33:35.875Z,3.67
2023-03-05T07:36:03.416Z,3.65
2023-03-05T07:38:30.642Z,3.80
2023-03-05T07:41:01.515Z,3.85
2023-03-05T07:43:28.665Z,3.85
2023-03-05T07:45:55.778Z,4.38
2023-03-05T07:48:23.805Z,3.45
2023-03-05T07:51:00.512Z,3.30
2023-03-05T07:53:27.636Z,3.13
2023-03-05T07:55:54.975Z,3.75
2023-03-05T07:58:22.279Z,4.88
2023-03-05T08:00:49.424Z,3.95
2023-03-05T08:03:16.883Z,5.15
2023-03-05T08:05:44.156Z,4.00
2023-03-05T08:08:12.660Z,4.88
2023-03-05T08:10:39.808Z,4.57
2023-03-05T08:13:07.110Z,4.07
2023-03-05T08:15:34.340Z,4.63
2023-03-05T08:18:01.490Z,3.80
2023-03-05T08:20:28.753Z,4.28
2023-03-05T08:22:55.995Z,3.70
2023-03-05T08:25:24.460Z,3.90
2023-03-05T08:27:51.665Z,3.55
2023-03-05T08:30:20.427Z,3.92
2023-03-05T08:32:49.423Z,3.40
2023-03-05T08:35:16.657Z,4.60
2023-03-05T08:37:43.779Z,3.78
2023-03-05T08:40:12.249Z,4.38
2023-03-05T08:42:40.721Z,3.92
2023-03-05T08:45:09.305Z,3.42
2023-03-05T08:47:36.424Z,4.10
2023-03-05T08:50:03.675Z,4.15
2023-03-05T08:52:30.783Z,4.20
2023-03-05T08:54:58.217Z,4.25
2023-03-05T08:57:25.386Z,3.53
2023-03-05T08:59:53.798Z,6.38
2023-03-05T09:02:20.910Z,6.25
2023-03-05T09:04:48.014Z,3.83
2023-03-05T09:07:15.120Z,3.28
2023-03-05T09:09:42.237Z,4.85
2023-03-05T09:12:12.137Z,3.92
2023-03-05T09:14:39.511Z,3.72
2023-03-05T09:17:08.495Z,5.47
2023-03-05T09:19:35.617Z,3.85
2023-03-05T09:22:02.916Z,3.83
2023-03-05T09:24:30.537Z,3.35
2023-03-05T09:26:58.687Z,6.18
2023-03-05T09:29:25.907Z,3.50
2023-03-05T09:31:53.477Z,6.43
2023-03-05T09:34:22.533Z,3.90
2023-03-05T09:36:49.922Z,4.22
2023-03-05T09:39:17.590Z,6.00
2023-03-05T09:42:06.260Z,5.90
2023-03-05T09:44:40.621Z,5.30
2023-03-05T09:47:21.202Z,4.43
2023-03-05T09:49:58.768Z,6.63
2023-03-05T09:52:35.834Z,5.25
2023-03-05T09:55:04.573Z,3.85
2023-03-05T09:57:39.066Z,5.15
2023-03-05T10:00:20.856Z,3.83
2023-03-05T10:02:52.478Z,4.30
2023-03-05T10:05:25.978Z,4.25
2023-03-05T10:07:57.560Z,4.03
2023-03-05T10:10:28.332Z,4.15
2023-03-05T10:12:59.868Z,3.88
2023-03-05T10:15:36.292Z,5.22
2023-03-05T10:18:19.140Z,7.63
2023-03-05T10:20:55.013Z,4.38
2023-03-05T10:23:38.618Z,4.40
2023-03-05T10:26:15.507Z,3.63
2023-03-05T10:28:48.148Z,4.20
2023-03-05T10:31:27.005Z,3.88
2023-03-05T10:34:10.908Z,3.63
2023-03-05T10:37:01.058Z,4.07
2023-03-05T10:39:43.966Z,3.95
2023-03-05T10:42:20.375Z,4.07
2023-03-05T10:44:51.987Z,4.47
2023-03-05T10:47:25.535Z,5.78
2023-03-05T10:49:54.244Z,6.53
2023-03-05T10:52:28.057Z,6.43
2023-03-05T10:54:55.278Z,5.00
2023-03-05T10:57:24.944Z,5.00
2023-03-05T10:59:54.626Z,5.50
2023-03-05T11:02:23.079Z,5.20
2023-03-05T11:04:51.982Z,4.88
2023-03-05T11:07:36.656Z,5.95
2023-03-05T11:10:15.648Z,5.22
2023-03-05T11:12:43.139Z,4.30
2023-03-05T11:15:25.288Z,6.35
2023-03-05T11:18:07.200Z,6.13
2023-03-05T11:20:36.675Z,4.50
2023-03-05T11:23:11.422Z,3.25
2023-03-05T11:25:56.409Z,6.20
2023-03-05T11:28:32.872Z,4.50
2023-03-05T11:31:04.490Z,4.40
2023-03-05T11:33:31.810Z,4.13
2023-03-05T11:36:22.826Z,5.25
2023-03-05T11:38:57.281Z,7.88
2023-03-05T11:41:32.533Z,5.57
2023-03-05T11:44:03.143Z,5.03
2023-03-05T11:46:38.188Z,3.72
2023-03-05T11:49:07.163Z,5.00
2023-03-05T11:51:41.340Z,3.92
2023-03-05T11:56:45.605Z,5.30
2023-03-05T11:59:16.548Z,4.60
2023-03-05T12:01:46.794Z,4.00
2023-03-05T12:04:14.490Z,3.85
2023-03-05T12:06:46.642Z,5.55
2023-03-05T12:09:23.653Z,4.90
2023-03-05T12:11:55.967Z,4.82
2023-03-05T12:14:28.746Z,5.65
2023-03-05T12:17:05.474Z,5.43
2023-03-05T12:19:40.537Z,5.95
2023-03-05T12:22:17.493Z,5.13
2023-03-05T12:24:45.972Z,4.35
2023-03-05T12:27:15.816Z,4.28
2023-03-05T12:29:48.270Z,5.40
2023-03-05T12:32:58.242Z,6.68
2023-03-05T12:35:31.149Z,6.28
2023-03-05T12:38:02.960Z,3.85
2023-03-05T12:40:34.361Z,5.60
2023-03-05T12:43:02.570Z,5.82
2023-03-05T12:45:37.956Z,4.72
2023-03-05T12:48:44.375Z,6.82
2023-03-05T12:51:13.900Z,5.38
2023-03-05T12:53:41.233Z,4.68
2023-03-05T12:56:19.600Z,6.13
2023-03-05T12:58:50.464Z,4.95
2023-03-05T13:01:33.846Z,6.38
2023-03-05T13:04:03.416Z,4.00
2023-03-05T13:06:33.244Z,7.13
2023-03-05T13:09:02.007Z,6.65
2023-03-05T13:11:33.692Z,5.97
2023-03-05T13:14:01.730Z,6.28
2023-03-05T13:16:36.175Z,5.47
2023-03-05T13:19:04.032Z,4.57
2023-03-05T13:21:33.178Z,7.15
2023-03-05T13:24:02.306Z,5.20
2023-03-05T13:26:36.964Z,9.25
2023-03-05T13:29:07.515Z,8.73
2023-03-05T13:31:36.493Z,5.57
2023-03-05T13:34:14.172Z,4.90
2023-03-05T13:36:47.100Z,5.60
2023-03-05T13:39:23.310Z,5.00
2023-03-05T13:42:03.488Z,5.95
2023-03-05T13:44:32.008Z,6.20
2023-03-05T13:47:15.226Z,3.80
2023-03-05T13:49:42.834Z,10.70
2023-03-05T13:52:10.916Z,8.73
2023-03-05T13:54:38.301Z,9.70
2023-03-05T13:57:08.616Z,6.63
2023-03-05T13:59:37.346Z,6.22
2023-03-05T14:02:15.768Z,5.30
2023-03-05T14:04:44.896Z,5.90
2023-03-05T14:07:27.879Z,7.97
2023-03-05T14:09:55.017Z,5.05
2023-03-05T14:12:28.588Z,5.65
2023-03-05T14:14:58.619Z,7.90
2023-03-05T14:17:38.817Z,7.57
2023-03-05T14:20:19.175Z,4.75
2023-03-05T14:22:47.757Z,5.78
2023-03-05T14:25:33.941Z,7.15
2023-03-05T14:28:04.139Z,4.95
2023-03-05T14:30:32.110Z,8.93
2023-03-05T14:33:00.552Z,7.68
2023-03-05T14:35:29.273Z,7.75
2023-03-05T14:37:58.323Z,5.72
2023-03-05T14:40:28.565Z,6.13
2023-03-05T14:42:57.633Z,9.30
2023-03-05T14:45:28.034Z,8.23
2023-03-05T14:47:59.113Z,12.85
2023-03-05T14:50:29.602Z,9.00
2023-03-05T14:52:59.149Z,9.82
2023-03-05T14:55:28.266Z,11.95
2023-03-05T14:57:59.916Z,10.20
2023-03-05T15:00:28.595Z,15.20
2023-03-05T15:02:55.862Z,15.95
2023-03-05T15:05:23.430Z,7.72
2023-03-05T15:07:52.172Z,9.85
2023-03-05T15:10:22.329Z,11.63
2023-03-05T15:12:50.173Z,8.93
2023-03-05T15:15:17.875Z,7.57
2023-03-05T15:17:48.553Z,10.55
2023-03-05T15:20:19.590Z,10.20
2023-03-05T15:22:46.719Z,8.98
2023-03-05T15:25:14.709Z,6.57
2023-03-05T15:27:42.080Z,9.80
2023-03-05T15:30:22.360Z,11.05
2023-03-05T15:32:51.388Z,11.82
2023-03-05T15:35:18.622Z,8.25
2023-03-05T15:37:45.729Z,9.35
2023-03-05T15:40:13.524Z,10.02
2023-03-05T15:42:41.154Z,10.88
2023-03-05T15:45:09.018Z,10.40
2023-03-05T15:47:36.419Z,10.13
2023-03-05T15:50:06.263Z,10.70
2023-03-05T15:52:33.339Z,7.68
2023-03-05T15:55:00.829Z,8.10
2023-03-05T15:57:28.373Z,7.55
2023-03-05T15:59:56.237Z,6.38
2023-03-05T16:02:23.354Z,9.30
2023-03-05T16:04:50.434Z,6.28
2023-03-05T16:07:19.298Z,7.13
2023-03-05T16:09:50.313Z,9.48
2023-03-05T16:12:20.485Z,7.70
2023-03-05T16:14:50.964Z,11.15
2023-03-05T16:17:21.026Z,11.00
2023-03-05T16:19:51.600Z,8.45
2023-03-05T16:22:20.066Z,6.40
2023-03-05T16:24:47.182Z,6.53
2023-03-05T16:27:14.270Z,8.50
2023-03-05T16:29:41.383Z,6.05
2023-03-05T16:32:08.546Z,6.80
2023-03-05T16:34:35.758Z,6.63
2023-03-05T16:37:02.857Z,6.68
2023-03-05T16:39:31.718Z,9.18
2023-03-05T16:41:58.803Z,6.25
2023-03-05T16:44:25.979Z,8.30
2023-03-05T16:46:53.281Z,10.25
2023-03-05T16:49:21.159Z,6.43
2023-03-05T16:51:48.701Z,7.13
2023-03-05T16:54:15.987Z,7.72
2023-03-05T16:56:44.414Z,6.55
2023-03-05T16:59:11.492Z,4.78
2023-03-05T17:01:38.612Z,5.72
2023-03-05T17:04:05.927Z,6.05
2023-03-05T17:06:33.347Z,8.27
2023-03-05T17:09:00.687Z,7.18
2023-03-05T17:11:27.828Z,6.85
2023-03-05T17:13:56.305Z,4.95
2023-03-05T17:16:23.604Z,8.98
2023-03-05T17:18:50.897Z,6.47
2023-03-05T17:21:18.022Z,5.80
2023-03-05T17:23:45.169Z,5.63
2023-03-05T17:26:14.213Z,4.10
2023-03-05T17:28:42.070Z,7.78
2023-03-05T17:31:11.571Z,4.15
2023-03-05T17:33:39.508Z,6.45
2023-03-05T17:36:13.281Z,4.35
2023-03-05T17:38:40.366Z,9.02
2023-03-05T17:41:07.467Z,5.32
2023-03-05T17:43:34.594Z,6.30
2023-03-05T17:46:01.724Z,4.65
2023-03-05T17:48:30.312Z,4.88
2023-03-05T17:50:58.378Z,4.05
2023-03-05T17:53:25.716Z,5.15
2023-03-05T17:55:52.923Z,6.80
2023-03-05T17:58:20.175Z,6.35
2023-03-05T18:00:47.326Z,6.53
2023-03-05T18:03:15.150Z,6.35
2023-03-05T18:05:44.269Z,6.45
2023-03-05T18:08:11.486Z,6.03
2023-03-05T18:10:38.817Z,8.32
2023-03-05T18:13:05.992Z,5.60
2023-03-05T18:15:33.087Z,7.25
2023-03-05T18:18:00.874Z,3.53
2023-03-05T18:20:30.876Z,5.30
2023-03-05T18:23:00.824Z,6.03
2023-03-05T18:25:29.173Z,7.45
2023-03-05T18:27:56.877Z,6.35
2023-03-05T18:30:23.971Z,5.70
2023-03-05T18:32:51.108Z,6.38
2023-03-05T18:35:18.314Z,5.97
2023-03-05T18:37:45.426Z,5.47
2023-03-05T18:40:19.384Z,6.43
2023-03-05T18:42:46.788Z,7.20
2023-03-05T18:45:15.264Z,7.03
2023-03-05T18:47:42.718Z,5.60
2023-03-05T18:50:11.814Z,4.22
2023-03-05T18:52:38.918Z,6.68
2023-03-05T18:55:06.808Z,5.65
2023-03-05T18:57:35.268Z,4.55
2023-03-05T19:00:02.392Z,4.80
2023-03-05T19:02:29.474Z,6.68
2023-03-05T19:04:56.720Z,5.18
2023-03-05T19:07:23.779Z,6.38
2023-03-05T19:09:50.925Z,6.40
2023-03-05T19:12:19.449Z,5.28
2023-03-05T19:14:47.950Z,3.70
2023-03-05T19:17:15.098Z,5.18
2023-03-05T19:19:42.403Z,6.07
2023-03-05T19:22:10.649Z,5.50
2023-03-05T19:24:37.846Z,4.80
2023-03-05T19:27:05.774Z,5.80
2023-03-05T19:29:32.999Z,4.63
2023-03-05T19:32:01.728Z,4.53
2023-03-05T19:34:28.894Z,4.15
2023-03-05T19:36:56.026Z,5.47
2023-03-05T19:39:23.216Z,6.15
2023-03-05T19:41:51.504Z,5.45
2023-03-05T19:44:18.710Z,4.82
2023-03-05T19:46:46.036Z,4.45
2023-03-05T19:49:15.130Z,6.00
2023-03-05T19:51:43.442Z,4.93
2023-03-05T19:54:10.809Z,5.53
2023-03-05T19:56:38.300Z,6.25
2023-03-05T19:59:05.959Z,5.43
2023-03-05T20:01:33.183Z,4.15
2023-03-05T20:04:03.309Z,5.75
2023-03-05T20:06:33.005Z,4.75
2023-03-05T20:09:00.315Z,4.30
2023-03-05T20:11:28.505Z,4.32
2023-03-05T20:13:56.233Z,5.65
2023-03-05T20:16:26.330Z,3.63
2023-03-05T20:18:54.436Z,4.43
2023-03-05T20:21:24.207Z,6.97
2023-03-05T20:23:54.020Z,5.25
2023-03-05T20:26:22.502Z,4.60
2023-03-05T20:28:49.929Z,4.43
2023-03-05T20:31:18.470Z,3.97
2023-03-05T20:33:45.813Z,4.32
2023-03-05T20:36:12.960Z,4.95
2023-03-05T20:38:40.210Z,6.30
2023-03-05T20:41:10.753Z,5.70
2023-03-05T20:43:41.164Z,5.35
2023-03-05T20:46:14.772Z,5.53
2023-03-05T20:48:41.983Z,5.93
2023-03-05T20:51:13.644Z,4.03
2023-03-05T20:53:40.845Z,4.07
2023-03-05T20:56:09.509Z,4.90
2023-03-05T20:58:36.906Z,4.82
2023-03-05T21:01:04.213Z,4.88
2023-03-05T21:03:31.474Z,5.32
2023-03-05T21:05:58.687Z,3.78
2023-03-05T21:08:25.762Z,5.72
2023-03-05T21:10:52.905Z,6.57
2023-03-05T21:13:21.541Z,5.55
2023-03-05T21:15:48.637Z,4.03
2023-03-05T21:18:15.756Z,4.10
2023-03-05T21:20:42.866Z,4.97
2023-03-05T21:23:09.980Z,5.60
2023-03-05T21:25:37.336Z,5.68
2023-03-05T21:28:07.507Z,5.10
2023-03-05T21:30:38.320Z,3.80
2023-03-05T21:33:07.543Z,5.25
2023-03-05T21:35:35.293Z,3.83
2023-03-05T21:38:03.928Z,3.83
2023-03-05T21:40:32.189Z,6.65
2023-03-05T21:42:59.570Z,4.38
2023-03-05T21:45:28.566Z,6.70
2023-03-05T21:47:57.704Z,5.30
2023-03-05T21:50:25.826Z,4.40
2023-03-05T21:52:53.329Z,5.40
2023-03-05T21:55:22.727Z,6.05
2023-03-05T21:57:49.922Z,6.10
2023-03-05T22:00:18.036Z,4.10
2023-03-05T22:02:45.142Z,5.10
2023-03-05T22:05:13.623Z,4.03
2023-03-05T22:07:41.714Z,4.82
2023-03-05T22:10:12.002Z,4.30
2023-03-05T22:12:39.238Z,3.90
2023-03-05T22:15:07.876Z,3.40
2023-03-05T22:17:35.287Z,5.32
2023-03-05T22:20:02.385Z,4.97
2023-03-05T22:22:30.911Z,4.03
2023-03-05T22:24:58.000Z,4.40
2023-03-05T22:27:25.086Z,4.20
2023-03-05T22:29:52.263Z,6.18
2023-03-05T22:32:19.361Z,4.35
2023-03-05T22:34:46.485Z,4.38
2023-03-05T22:37:13.589Z,4.97
2023-03-05T22:39:42.030Z,4.20
2023-03-05T22:42:09.290Z,5.00
2023-03-05T22:44:36.477Z,4.03
2023-03-05T22:47:03.934Z,4.50
2023-03-05T22:49:32.150Z,4.18
2023-03-05T22:51:59.258Z,5.35
2023-03-05T22:54:26.360Z,4.28
2023-03-05T22:56:54.794Z,4.00
2023-03-05T22:59:21.885Z,3.92
2023-03-05T23:01:48.981Z,4.15
2023-03-05T23:04:16.167Z,4.70
2023-03-05T23:06:43.309Z,4.63
2023-03-05T23:09:10.378Z,4.35
2023-03-05T23:11:37.470Z,4.25
2023-03-05T23:14:05.966Z,5.05
2023-03-05T23:16:33.075Z,3.30
2023-03-05T23:19:00.161Z,3.50
2023-03-05T23:21:27.276Z,4.75
2023-03-05T23:23:54.356Z,3.60
2023-03-05T23:26:21.447Z,4.65
2023-03-05T23:28:48.554Z,4.55
2023-03-05T23:31:18.701Z,5.03
2023-03-05T23:33:45.837Z,4.10
2023-03-05T23:36:13.038Z,4.78
2023-03-05T23:38:40.336Z,3.78
2023-03-05T23:41:08.958Z,5.10
2023-03-05T23:43:36.044Z,4.35
2023-03-05T23:46:03.176Z,4.15
2023-03-05T23:48:31.636Z,6.57
2023-03-05T23:50:58.735Z,4.40
2023-03-05T23:53:28.221Z,4.63
2023-03-05T23:55:55.916Z,4.25
2023-03-05T23:58:23.634Z,4.72
